sensor_id;sensor_type;location;lat;lon;timestamp;temperature;humidity
61167;DHT22;47038;50.808;3.468;2022-07-12T00:01:07;21.00;90.40
61167;DHT22;47038;50.808;3.468;2022-07-12T00:03:33;21.00;90.50
61167;DHT22;47038;50.808;3.468;2022-07-12T00:05:59;20.90;90.60
61167;DHT22;47038;50.808;3.468;2022-07-12T00:08:25;20.90;90.80
61167;DHT22;47038;50.808;3.468;2022-07-12T00:10:51;20.90;90.90
61167;DHT22;47038;50.808;3.468;2022-07-12T00:13:16;20.90;91.00
61167;DHT22;47038;50.808;3.468;2022-07-12T00:15:42;21.00;91.10
61167;DHT22;47038;50.808;3.468;2022-07-12T00:18:08;21.00;91.10
61167;DHT22;47038;50.808;3.468;2022-07-12T00:20:34;21.00;91.00
61167;DHT22;47038;50.808;3.468;2022-07-12T00:22:59;21.00;91.20
61167;DHT22;47038;50.808;3.468;2022-07-12T00:25:25;20.90;91.50
61167;DHT22;47038;50.808;3.468;2022-07-12T00:27:51;21.00;91.50
61167;DHT22;47038;50.808;3.468;2022-07-12T00:30:17;21.00;91.40
61167;DHT22;47038;50.808;3.468;2022-07-12T00:32:43;21.00;91.50
61167;DHT22;47038;50.808;3.468;2022-07-12T00:35:08;21.00;91.70
61167;DHT22;47038;50.808;3.468;2022-07-12T00:37:34;21.00;91.70
61167;DHT22;47038;50.808;3.468;2022-07-12T00:40:00;21.00;91.60
61167;DHT22;47038;50.808;3.468;2022-07-12T00:42:26;20.90;91.60
61167;DHT22;47038;50.808;3.468;2022-07-12T00:44:52;20.90;91.70
61167;DHT22;47038;50.808;3.468;2022-07-12T00:47:28;20.90;91.90
61167;DHT22;47038;50.808;3.468;2022-07-12T00:49:57;20.80;91.70
61167;DHT22;47038;50.808;3.468;2022-07-12T00:52:23;20.70;91.90
61167;DHT22;47038;50.808;3.468;2022-07-12T00:54:49;20.60;91.90
61167;DHT22;47038;50.808;3.468;2022-07-12T00:57:15;20.30;92.90
61167;DHT22;47038;50.808;3.468;2022-07-12T00:59:40;20.40;93.00
61167;DHT22;47038;50.808;3.468;2022-07-12T01:02:06;20.40;93.00
61167;DHT22;47038;50.808;3.468;2022-07-12T01:04:32;20.50;93.10
61167;DHT22;47038;50.808;3.468;2022-07-12T01:06:58;20.50;93.20
61167;DHT22;47038;50.808;3.468;2022-07-12T01:09:24;20.60;93.20
61167;DHT22;47038;50.808;3.468;2022-07-12T01:11:49;20.40;93.40
61167;DHT22;47038;50.808;3.468;2022-07-12T01:14:15;20.50;93.40
61167;DHT22;47038;50.808;3.468;2022-07-12T01:16:41;20.50;93.40
61167;DHT22;47038;50.808;3.468;2022-07-12T01:19:07;20.40;93.50
61167;DHT22;47038;50.808;3.468;2022-07-12T01:21:34;20.40;93.70
61167;DHT22;47038;50.808;3.468;2022-07-12T01:24:01;20.40;93.50
61167;DHT22;47038;50.808;3.468;2022-07-12T01:26:27;20.50;93.40
61167;DHT22;47038;50.808;3.468;2022-07-12T01:28:52;20.60;93.20
61167;DHT22;47038;50.808;3.468;2022-07-12T01:31:19;20.50;93.20
61167;DHT22;47038;50.808;3.468;2022-07-12T01:33:44;20.50;93.40
61167;DHT22;47038;50.808;3.468;2022-07-12T01:36:10;20.50;93.60
61167;DHT22;47038;50.808;3.468;2022-07-12T01:38:35;20.40;93.50
61167;DHT22;47038;50.808;3.468;2022-07-12T01:41:01;20.40;93.90
61167;DHT22;47038;50.808;3.468;2022-07-12T01:43:27;20.10;94.50
61167;DHT22;47038;50.808;3.468;2022-07-12T01:45:53;20.10;94.30
61167;DHT22;47038;50.808;3.468;2022-07-12T01:48:19;20.10;94.20
61167;DHT22;47038;50.808;3.468;2022-07-12T01:50:44;20.10;94.30
61167;DHT22;47038;50.808;3.468;2022-07-12T01:53:10;20.10;94.50
61167;DHT22;47038;50.808;3.468;2022-07-12T01:55:37;19.80;95.30
61167;DHT22;47038;50.808;3.468;2022-07-12T01:58:03;19.80;95.40
61167;DHT22;47038;50.808;3.468;2022-07-12T02:00:29;19.90;95.20
61167;DHT22;47038;50.808;3.468;2022-07-12T02:02:55;19.80;95.20
61167;DHT22;47038;50.808;3.468;2022-07-12T02:05:20;19.70;95.60
61167;DHT22;47038;50.808;3.468;2022-07-12T02:07:46;19.90;95.50
61167;DHT22;47038;50.808;3.468;2022-07-12T02:10:12;19.80;95.70
61167;DHT22;47038;50.808;3.468;2022-07-12T02:12:38;19.70;96.00
61167;DHT22;47038;50.808;3.468;2022-07-12T02:15:05;19.60;96.10
61167;DHT22;47038;50.808;3.468;2022-07-12T02:17:30;19.80;95.90
61167;DHT22;47038;50.808;3.468;2022-07-12T02:19:56;19.80;95.90
61167;DHT22;47038;50.808;3.468;2022-07-12T02:22:22;19.80;95.80
61167;DHT22;47038;50.808;3.468;2022-07-12T02:24:47;19.70;95.70
61167;DHT22;47038;50.808;3.468;2022-07-12T02:27:13;19.70;95.80
61167;DHT22;47038;50.808;3.468;2022-07-12T02:29:38;19.70;95.70
61167;DHT22;47038;50.808;3.468;2022-07-12T02:32:06;19.60;96.10
61167;DHT22;47038;50.808;3.468;2022-07-12T02:34:32;19.60;96.00
61167;DHT22;47038;50.808;3.468;2022-07-12T02:36:58;19.60;96.00
61167;DHT22;47038;50.808;3.468;2022-07-12T02:39:24;19.60;96.20
61167;DHT22;47038;50.808;3.468;2022-07-12T02:41:49;19.50;96.20
61167;DHT22;47038;50.808;3.468;2022-07-12T02:44:15;19.50;96.30
61167;DHT22;47038;50.808;3.468;2022-07-12T02:46:41;19.40;96.30
61167;DHT22;47038;50.808;3.468;2022-07-12T02:49:06;19.30;96.50
61167;DHT22;47038;50.808;3.468;2022-07-12T02:51:32;19.20;96.40
61167;DHT22;47038;50.808;3.468;2022-07-12T02:53:57;19.10;96.60
61167;DHT22;47038;50.808;3.468;2022-07-12T02:56:25;19.10;96.60
61167;DHT22;47038;50.808;3.468;2022-07-12T02:58:50;18.90;96.70
61167;DHT22;47038;50.808;3.468;2022-07-12T03:01:16;19.00;96.80
61167;DHT22;47038;50.808;3.468;2022-07-12T03:03:41;18.90;97.20
61167;DHT22;47038;50.808;3.468;2022-07-12T03:06:07;18.80;97.40
61167;DHT22;47038;50.808;3.468;2022-07-12T03:08:32;18.70;97.80
61167;DHT22;47038;50.808;3.468;2022-07-12T03:10:58;18.80;97.60
61167;DHT22;47038;50.808;3.468;2022-07-12T03:13:23;18.90;97.50
61167;DHT22;47038;50.808;3.468;2022-07-12T03:15:50;18.90;97.60
61167;DHT22;47038;50.808;3.468;2022-07-12T03:18:16;18.80;97.60
61167;DHT22;47038;50.808;3.468;2022-07-12T03:20:42;18.90;97.70
61167;DHT22;47038;50.808;3.468;2022-07-12T03:23:08;18.80;97.90
61167;DHT22;47038;50.808;3.468;2022-07-12T03:25:34;18.70;97.90
61167;DHT22;47038;50.808;3.468;2022-07-12T03:27:59;18.70;98.20
61167;DHT22;47038;50.808;3.468;2022-07-12T03:30:25;18.80;98.20
61167;DHT22;47038;50.808;3.468;2022-07-12T03:32:51;18.70;98.40
61167;DHT22;47038;50.808;3.468;2022-07-12T03:35:16;18.80;98.20
61167;DHT22;47038;50.808;3.468;2022-07-12T03:37:46;18.80;98.10
61167;DHT22;47038;50.808;3.468;2022-07-12T03:40:12;18.90;98.10
61167;DHT22;47038;50.808;3.468;2022-07-12T03:42:38;19.10;97.70
61167;DHT22;47038;50.808;3.468;2022-07-12T03:45:04;19.10;97.70
61167;DHT22;47038;50.808;3.468;2022-07-12T03:47:30;19.00;97.60
61167;DHT22;47038;50.808;3.468;2022-07-12T03:49:57;19.00;97.70
61167;DHT22;47038;50.808;3.468;2022-07-12T03:52:22;19.10;97.60
61167;DHT22;47038;50.808;3.468;2022-07-12T03:54:48;19.20;97.50
61167;DHT22;47038;50.808;3.468;2022-07-12T03:57:14;19.10;97.60
61167;DHT22;47038;50.808;3.468;2022-07-12T03:59:40;19.10;97.40
61167;DHT22;47038;50.808;3.468;2022-07-12T04:02:05;19.00;97.10
61167;DHT22;47038;50.808;3.468;2022-07-12T04:04:31;18.80;97.20
61167;DHT22;47038;50.808;3.468;2022-07-12T04:06:56;18.70;97.30
61167;DHT22;47038;50.808;3.468;2022-07-12T04:09:22;18.60;98.20
61167;DHT22;47038;50.808;3.468;2022-07-12T04:11:47;18.50;98.30
61167;DHT22;47038;50.808;3.468;2022-07-12T04:14:13;18.60;98.60
61167;DHT22;47038;50.808;3.468;2022-07-12T04:16:38;18.70;98.20
61167;DHT22;47038;50.808;3.468;2022-07-12T04:19:04;18.70;97.90
61167;DHT22;47038;50.808;3.468;2022-07-12T04:21:33;18.70;97.90
61167;DHT22;47038;50.808;3.468;2022-07-12T04:23:59;18.70;98.30
61167;DHT22;47038;50.808;3.468;2022-07-12T04:26:24;18.90;97.60
61167;DHT22;47038;50.808;3.468;2022-07-12T04:28:50;18.80;98.40
61167;DHT22;47038;50.808;3.468;2022-07-12T04:31:15;19.00;97.30
61167;DHT22;47038;50.808;3.468;2022-07-12T04:33:41;19.10;97.40
61167;DHT22;47038;50.808;3.468;2022-07-12T04:36:06;18.90;97.70
61167;DHT22;47038;50.808;3.468;2022-07-12T04:38:32;19.10;97.60
61167;DHT22;47038;50.808;3.468;2022-07-12T04:40:57;19.20;97.50
61167;DHT22;47038;50.808;3.468;2022-07-12T04:43:23;19.00;97.70
61167;DHT22;47038;50.808;3.468;2022-07-12T04:45:50;19.20;97.40
61167;DHT22;47038;50.808;3.468;2022-07-12T04:48:15;19.10;97.30
61167;DHT22;47038;50.808;3.468;2022-07-12T04:50:41;19.10;97.40
61167;DHT22;47038;50.808;3.468;2022-07-12T04:53:07;19.30;97.10
61167;DHT22;47038;50.808;3.468;2022-07-12T04:55:33;19.20;97.40
61167;DHT22;47038;50.808;3.468;2022-07-12T04:57:58;19.20;97.40
61167;DHT22;47038;50.808;3.468;2022-07-12T05:00:24;19.30;97.50
61167;DHT22;47038;50.808;3.468;2022-07-12T05:02:49;19.20;97.50
61167;DHT22;47038;50.808;3.468;2022-07-12T05:05:15;19.10;97.60
61167;DHT22;47038;50.808;3.468;2022-07-12T05:07:41;19.10;97.70
61167;DHT22;47038;50.808;3.468;2022-07-12T05:10:07;19.10;97.90
61167;DHT22;47038;50.808;3.468;2022-07-12T05:12:36;19.30;97.60
61167;DHT22;47038;50.808;3.468;2022-07-12T05:15:02;19.30;97.40
61167;DHT22;47038;50.808;3.468;2022-07-12T05:17:27;19.20;98.00
61167;DHT22;47038;50.808;3.468;2022-07-12T05:19:53;19.30;97.70
61167;DHT22;47038;50.808;3.468;2022-07-12T05:22:18;19.40;97.40
61167;DHT22;47038;50.808;3.468;2022-07-12T05:24:44;19.30;97.40
61167;DHT22;47038;50.808;3.468;2022-07-12T05:27:09;19.40;97.30
61167;DHT22;47038;50.808;3.468;2022-07-12T05:29:35;19.20;97.40
61167;DHT22;47038;50.808;3.468;2022-07-12T05:32:01;19.20;97.50
61167;DHT22;47038;50.808;3.468;2022-07-12T05:34:27;19.10;97.30
61167;DHT22;47038;50.808;3.468;2022-07-12T05:36:52;19.20;97.60
61167;DHT22;47038;50.808;3.468;2022-07-12T05:39:18;19.30;97.40
61167;DHT22;47038;50.808;3.468;2022-07-12T05:41:44;19.20;97.50
61167;DHT22;47038;50.808;3.468;2022-07-12T05:44:10;19.20;97.80
61167;DHT22;47038;50.808;3.468;2022-07-12T05:46:36;19.20;98.00
61167;DHT22;47038;50.808;3.468;2022-07-12T05:49:03;19.40;97.90
61167;DHT22;47038;50.808;3.468;2022-07-12T05:51:28;19.50;97.50
61167;DHT22;47038;50.808;3.468;2022-07-12T05:54:13;19.50;97.90
61167;DHT22;47038;50.808;3.468;2022-07-12T05:56:38;19.60;97.80
61167;DHT22;47038;50.808;3.468;2022-07-12T05:59:04;19.80;97.50
61167;DHT22;47038;50.808;3.468;2022-07-12T06:01:29;20.20;97.10
61167;DHT22;47038;50.808;3.468;2022-07-12T06:03:55;20.50;96.30
61167;DHT22;47038;50.808;3.468;2022-07-12T06:06:20;20.80;95.90
61167;DHT22;47038;50.808;3.468;2022-07-12T06:08:46;20.90;95.50
61167;DHT22;47038;50.808;3.468;2022-07-12T06:11:11;21.10;94.80
61167;DHT22;47038;50.808;3.468;2022-07-12T06:13:37;21.30;94.60
61167;DHT22;47038;50.808;3.468;2022-07-12T06:16:03;21.60;93.90
61167;DHT22;47038;50.808;3.468;2022-07-12T06:18:31;21.70;94.00
61167;DHT22;47038;50.808;3.468;2022-07-12T06:20:57;22.00;93.50
61167;DHT22;47038;50.808;3.468;2022-07-12T06:23:22;22.30;93.00
61167;DHT22;47038;50.808;3.468;2022-07-12T06:25:48;22.40;92.80
61167;DHT22;47038;50.808;3.468;2022-07-12T06:28:13;22.60;92.30
61167;DHT22;47038;50.808;3.468;2022-07-12T06:30:39;22.60;92.30
61167;DHT22;47038;50.808;3.468;2022-07-12T06:33:04;22.70;92.30
61167;DHT22;47038;50.808;3.468;2022-07-12T06:35:30;22.90;92.00
61167;DHT22;47038;50.808;3.468;2022-07-12T06:37:56;23.00;91.60
61167;DHT22;47038;50.808;3.468;2022-07-12T06:40:21;23.10;91.40
61167;DHT22;47038;50.808;3.468;2022-07-12T06:42:48;23.30;91.30
61167;DHT22;47038;50.808;3.468;2022-07-12T06:45:14;23.30;91.00
61167;DHT22;47038;50.808;3.468;2022-07-12T06:47:40;23.20;90.80
61167;DHT22;47038;50.808;3.468;2022-07-12T06:50:05;23.30;91.00
61167;DHT22;47038;50.808;3.468;2022-07-12T06:52:31;23.30;90.90
61167;DHT22;47038;50.808;3.468;2022-07-12T06:54:57;23.20;90.90
61167;DHT22;47038;50.808;3.468;2022-07-12T06:57:23;23.20;91.30
61167;DHT22;47038;50.808;3.468;2022-07-12T06:59:48;23.10;91.50
61167;DHT22;47038;50.808;3.468;2022-07-12T07:02:14;23.00;91.60
61167;DHT22;47038;50.808;3.468;2022-07-12T07:04:40;23.10;91.30
61167;DHT22;47038;50.808;3.468;2022-07-12T07:07:06;23.00;91.30
61167;DHT22;47038;50.808;3.468;2022-07-12T07:09:31;23.20;90.90
61167;DHT22;47038;50.808;3.468;2022-07-12T07:11:57;23.30;90.70
61167;DHT22;47038;50.808;3.468;2022-07-12T07:14:23;23.50;90.70
61167;DHT22;47038;50.808;3.468;2022-07-12T07:16:48;23.70;90.70
61167;DHT22;47038;50.808;3.468;2022-07-12T07:19:14;23.70;90.30
61167;DHT22;47038;50.808;3.468;2022-07-12T07:21:40;23.80;90.30
61167;DHT22;47038;50.808;3.468;2022-07-12T07:24:05;24.00;90.00
61167;DHT22;47038;50.808;3.468;2022-07-12T07:26:31;24.10;89.40
61167;DHT22;47038;50.808;3.468;2022-07-12T07:28:58;24.30;88.90
61167;DHT22;47038;50.808;3.468;2022-07-12T07:31:42;24.30;88.50
61167;DHT22;47038;50.808;3.468;2022-07-12T07:34:08;24.20;89.40
61167;DHT22;47038;50.808;3.468;2022-07-12T07:36:33;24.40;88.70
61167;DHT22;47038;50.808;3.468;2022-07-12T07:38:59;24.60;88.40
61167;DHT22;47038;50.808;3.468;2022-07-12T07:41:24;24.60;88.30
61167;DHT22;47038;50.808;3.468;2022-07-12T07:43:50;24.70;87.20
61167;DHT22;47038;50.808;3.468;2022-07-12T07:46:16;24.80;86.30
61167;DHT22;47038;50.808;3.468;2022-07-12T07:48:42;24.90;86.50
61167;DHT22;47038;50.808;3.468;2022-07-12T07:51:07;24.90;86.70
61167;DHT22;47038;50.808;3.468;2022-07-12T07:53:33;25.10;86.00
61167;DHT22;47038;50.808;3.468;2022-07-12T07:55:58;25.20;86.10
61167;DHT22;47038;50.808;3.468;2022-07-12T07:58:24;25.50;84.90
61167;DHT22;47038;50.808;3.468;2022-07-12T08:00:50;25.60;84.20
61167;DHT22;47038;50.808;3.468;2022-07-12T08:03:16;25.70;83.30
61167;DHT22;47038;50.808;3.468;2022-07-12T08:05:42;25.70;81.90
61167;DHT22;47038;50.808;3.468;2022-07-12T08:08:07;25.90;81.00
61167;DHT22;47038;50.808;3.468;2022-07-12T08:10:33;25.90;82.00
61167;DHT22;47038;50.808;3.468;2022-07-12T08:12:58;26.00;81.90
61167;DHT22;47038;50.808;3.468;2022-07-12T08:15:25;26.10;82.20
61167;DHT22;47038;50.808;3.468;2022-07-12T08:17:51;26.30;80.70
61167;DHT22;47038;50.808;3.468;2022-07-12T08:20:16;25.90;80.90
61167;DHT22;47038;50.808;3.468;2022-07-12T08:22:43;25.80;80.90
61167;DHT22;47038;50.808;3.468;2022-07-12T08:25:08;25.90;80.70
61167;DHT22;47038;50.808;3.468;2022-07-12T08:27:34;26.20;80.40
61167;DHT22;47038;50.808;3.468;2022-07-12T08:29:59;26.40;80.50
61167;DHT22;47038;50.808;3.468;2022-07-12T08:32:25;26.40;80.00
61167;DHT22;47038;50.808;3.468;2022-07-12T08:34:50;26.60;78.00
61167;DHT22;47038;50.808;3.468;2022-07-12T08:37:16;26.80;77.50
61167;DHT22;47038;50.808;3.468;2022-07-12T08:39:41;27.10;77.20
61167;DHT22;47038;50.808;3.468;2022-07-12T08:42:07;27.10;75.00
61167;DHT22;47038;50.808;3.468;2022-07-12T08:44:33;27.00;75.90
61167;DHT22;47038;50.808;3.468;2022-07-12T08:46:58;26.90;75.60
61167;DHT22;47038;50.808;3.468;2022-07-12T08:49:24;26.80;75.90
61167;DHT22;47038;50.808;3.468;2022-07-12T08:51:49;26.70;76.00
61167;DHT22;47038;50.808;3.468;2022-07-12T08:54:15;26.70;76.90
61167;DHT22;47038;50.808;3.468;2022-07-12T08:56:44;26.90;76.20
61167;DHT22;47038;50.808;3.468;2022-07-12T08:59:16;27.00;75.50
61167;DHT22;47038;50.808;3.468;2022-07-12T09:01:43;27.20;75.10
61167;DHT22;47038;50.808;3.468;2022-07-12T09:04:20;27.00;74.80
61167;DHT22;47038;50.808;3.468;2022-07-12T09:06:46;27.00;75.10
61167;DHT22;47038;50.808;3.468;2022-07-12T09:09:24;27.30;74.30
61167;DHT22;47038;50.808;3.468;2022-07-12T09:11:51;27.20;74.60
61167;DHT22;47038;50.808;3.468;2022-07-12T09:14:18;27.30;74.90
61167;DHT22;47038;50.808;3.468;2022-07-12T09:16:43;27.50;74.30
61167;DHT22;47038;50.808;3.468;2022-07-12T09:21:37;27.80;73.00
61167;DHT22;47038;50.808;3.468;2022-07-12T09:24:10;28.00;72.40
61167;DHT22;47038;50.808;3.468;2022-07-12T09:26:36;28.30;71.30
61167;DHT22;47038;50.808;3.468;2022-07-12T09:29:06;28.40;71.40
61167;DHT22;47038;50.808;3.468;2022-07-12T09:31:45;28.50;69.80
61167;DHT22;47038;50.808;3.468;2022-07-12T09:34:30;28.60;69.20
61167;DHT22;47038;50.808;3.468;2022-07-12T09:37:15;28.50;69.50
61167;DHT22;47038;50.808;3.468;2022-07-12T09:39:41;28.80;70.30
61167;DHT22;47038;50.808;3.468;2022-07-12T09:42:07;29.00;66.10
61167;DHT22;47038;50.808;3.468;2022-07-12T09:44:34;28.90;66.50
61167;DHT22;47038;50.808;3.468;2022-07-12T09:47:00;29.10;67.90
61167;DHT22;47038;50.808;3.468;2022-07-12T09:49:27;29.20;67.50
61167;DHT22;47038;50.808;3.468;2022-07-12T09:51:56;29.30;66.70
61167;DHT22;47038;50.808;3.468;2022-07-12T09:54:26;29.20;66.80
61167;DHT22;47038;50.808;3.468;2022-07-12T09:56:53;29.30;65.90
61167;DHT22;47038;50.808;3.468;2022-07-12T09:59:20;29.10;62.00
61167;DHT22;47038;50.808;3.468;2022-07-12T10:01:47;29.20;64.10
61167;DHT22;47038;50.808;3.468;2022-07-12T10:04:13;29.10;64.60
61167;DHT22;47038;50.808;3.468;2022-07-12T10:06:40;28.90;64.80
61167;DHT22;47038;50.808;3.468;2022-07-12T10:09:05;28.70;63.00
61167;DHT22;47038;50.808;3.468;2022-07-12T10:11:31;28.80;62.90
61167;DHT22;47038;50.808;3.468;2022-07-12T10:13:57;29.10;61.90
61167;DHT22;47038;50.808;3.468;2022-07-12T10:16:26;29.50;59.70
61167;DHT22;47038;50.808;3.468;2022-07-12T10:21:39;29.90;61.20
61167;DHT22;47038;50.808;3.468;2022-07-12T10:24:27;30.10;60.40
61167;DHT22;47038;50.808;3.468;2022-07-12T10:26:50;30.00;60.80
61167;DHT22;47038;50.808;3.468;2022-07-12T10:29:18;29.90;60.90
61167;DHT22;47038;50.808;3.468;2022-07-12T10:31:44;30.10;59.60
61167;DHT22;47038;50.808;3.468;2022-07-12T10:34:21;30.30;59.70
61167;DHT22;47038;50.808;3.468;2022-07-12T10:39:25;30.80;57.60
61167;DHT22;47038;50.808;3.468;2022-07-12T10:44:36;31.20;53.50
61167;DHT22;47038;50.808;3.468;2022-07-12T10:47:02;30.40;57.30
61167;DHT22;47038;50.808;3.468;2022-07-12T10:49:29;30.40;58.90
61167;DHT22;47038;50.808;3.468;2022-07-12T10:54:37;31.00;56.10
61167;DHT22;47038;50.808;3.468;2022-07-12T10:57:03;31.20;55.10
61167;DHT22;47038;50.808;3.468;2022-07-12T10:59:29;31.50;55.50
61167;DHT22;47038;50.808;3.468;2022-07-12T11:01:55;31.60;54.50
61167;DHT22;47038;50.808;3.468;2022-07-12T11:04:21;31.70;54.40
61167;DHT22;47038;50.808;3.468;2022-07-12T11:06:47;31.70;52.20
61167;DHT22;47038;50.808;3.468;2022-07-12T11:09:16;31.80;51.90
61167;DHT22;47038;50.808;3.468;2022-07-12T11:11:43;31.90;50.20
61167;DHT22;47038;50.808;3.468;2022-07-12T11:14:09;31.90;52.00
61167;DHT22;47038;50.808;3.468;2022-07-12T11:16:42;32.10;52.80
61167;DHT22;47038;50.808;3.468;2022-07-12T11:19:08;31.90;50.60
61167;DHT22;47038;50.808;3.468;2022-07-12T11:21:34;31.90;49.30
61167;DHT22;47038;50.808;3.468;2022-07-12T11:24:00;31.90;50.50
61167;DHT22;47038;50.808;3.468;2022-07-12T11:26:26;32.20;52.70
61167;DHT22;47038;50.808;3.468;2022-07-12T11:28:55;32.40;51.00
61167;DHT22;47038;50.808;3.468;2022-07-12T11:31:22;32.40;52.30
61167;DHT22;47038;50.808;3.468;2022-07-12T11:33:48;32.50;52.70
61167;DHT22;47038;50.808;3.468;2022-07-12T11:36:14;32.50;51.60
61167;DHT22;47038;50.808;3.468;2022-07-12T11:38:41;32.50;51.60
61167;DHT22;47038;50.808;3.468;2022-07-12T11:41:07;32.30;51.40
61167;DHT22;47038;50.808;3.468;2022-07-12T11:43:35;32.30;51.20
61167;DHT22;47038;50.808;3.468;2022-07-12T11:46:01;32.60;51.00
61167;DHT22;47038;50.808;3.468;2022-07-12T11:48:27;32.60;50.10
61167;DHT22;47038;50.808;3.468;2022-07-12T11:50:54;32.50;51.60
61167;DHT22;47038;50.808;3.468;2022-07-12T11:53:21;32.70;51.50
61167;DHT22;47038;50.808;3.468;2022-07-12T11:55:48;32.30;49.50
61167;DHT22;47038;50.808;3.468;2022-07-12T11:58:14;32.30;49.60
61167;DHT22;47038;50.808;3.468;2022-07-12T12:00:40;32.40;49.10
61167;DHT22;47038;50.808;3.468;2022-07-12T12:03:06;32.50;49.60
61167;DHT22;47038;50.808;3.468;2022-07-12T12:05:32;32.60;49.60
61167;DHT22;47038;50.808;3.468;2022-07-12T12:07:58;32.80;49.10
61167;DHT22;47038;50.808;3.468;2022-07-12T12:10:24;32.70;48.30
61167;DHT22;47038;50.808;3.468;2022-07-12T12:12:51;32.40;49.30
61167;DHT22;47038;50.808;3.468;2022-07-12T12:15:17;32.50;50.00
61167;DHT22;47038;50.808;3.468;2022-07-12T12:17:56;32.20;50.70
61167;DHT22;47038;50.808;3.468;2022-07-12T12:20:23;32.40;51.30
61167;DHT22;47038;50.808;3.468;2022-07-12T12:22:50;32.60;50.80
61167;DHT22;47038;50.808;3.468;2022-07-12T12:25:15;33.10;51.20
61167;DHT22;47038;50.808;3.468;2022-07-12T12:27:45;33.10;50.20
61167;DHT22;47038;50.808;3.468;2022-07-12T12:30:11;33.00;48.40
61167;DHT22;47038;50.808;3.468;2022-07-12T12:32:44;33.20;47.00
61167;DHT22;47038;50.808;3.468;2022-07-12T12:35:11;33.30;47.50
61167;DHT22;47038;50.808;3.468;2022-07-12T12:37:37;33.00;47.40
61167;DHT22;47038;50.808;3.468;2022-07-12T12:40:03;32.60;48.00
61167;DHT22;47038;50.808;3.468;2022-07-12T12:42:29;32.70;48.80
61167;DHT22;47038;50.808;3.468;2022-07-12T12:44:55;32.80;47.40
61167;DHT22;47038;50.808;3.468;2022-07-12T12:47:20;33.10;47.10
61167;DHT22;47038;50.808;3.468;2022-07-12T12:50:01;33.20;47.60
61167;DHT22;47038;50.808;3.468;2022-07-12T12:52:28;33.30;48.10
61167;DHT22;47038;50.808;3.468;2022-07-12T12:54:54;33.40;48.80
61167;DHT22;47038;50.808;3.468;2022-07-12T12:57:20;33.30;47.90
61167;DHT22;47038;50.808;3.468;2022-07-12T12:59:46;33.40;47.60
61167;DHT22;47038;50.808;3.468;2022-07-12T13:02:11;33.50;47.50
61167;DHT22;47038;50.808;3.468;2022-07-12T13:04:37;33.70;46.90
61167;DHT22;47038;50.808;3.468;2022-07-12T13:07:03;34.00;45.50
61167;DHT22;47038;50.808;3.468;2022-07-12T13:09:31;34.10;46.10
61167;DHT22;47038;50.808;3.468;2022-07-12T13:11:56;34.10;47.30
61167;DHT22;47038;50.808;3.468;2022-07-12T13:14:23;34.20;46.20
61167;DHT22;47038;50.808;3.468;2022-07-12T13:16:49;33.70;47.80
61167;DHT22;47038;50.808;3.468;2022-07-12T13:19:15;33.40;49.30
61167;DHT22;47038;50.808;3.468;2022-07-12T13:21:40;33.70;49.40
61167;DHT22;47038;50.808;3.468;2022-07-12T13:24:06;33.80;46.40
61167;DHT22;47038;50.808;3.468;2022-07-12T13:26:32;33.90;45.00
61167;DHT22;47038;50.808;3.468;2022-07-12T13:28:57;34.00;45.50
61167;DHT22;47038;50.808;3.468;2022-07-12T13:31:23;34.00;44.30
61167;DHT22;47038;50.808;3.468;2022-07-12T13:33:48;34.00;44.40
61167;DHT22;47038;50.808;3.468;2022-07-12T13:36:14;34.20;43.30
61167;DHT22;47038;50.808;3.468;2022-07-12T13:38:40;34.30;43.40
61167;DHT22;47038;50.808;3.468;2022-07-12T13:41:06;34.50;43.70
61167;DHT22;47038;50.808;3.468;2022-07-12T13:43:32;34.90;42.40
61167;DHT22;47038;50.808;3.468;2022-07-12T13:45:57;35.00;40.30
61167;DHT22;47038;50.808;3.468;2022-07-12T13:48:23;34.80;40.30
61167;DHT22;47038;50.808;3.468;2022-07-12T13:50:49;34.90;40.00
61167;DHT22;47038;50.808;3.468;2022-07-12T13:53:14;35.00;40.00
61167;DHT22;47038;50.808;3.468;2022-07-12T13:55:44;35.00;39.50
61167;DHT22;47038;50.808;3.468;2022-07-12T13:58:09;35.10;39.30
61167;DHT22;47038;50.808;3.468;2022-07-12T14:00:35;35.00;36.80
61167;DHT22;47038;50.808;3.468;2022-07-12T14:03:01;34.90;37.10
61167;DHT22;47038;50.808;3.468;2022-07-12T14:05:27;35.10;38.00
61167;DHT22;47038;50.808;3.468;2022-07-12T14:07:52;35.20;39.20
61167;DHT22;47038;50.808;3.468;2022-07-12T14:10:19;35.40;37.70
61167;DHT22;47038;50.808;3.468;2022-07-12T14:12:45;35.30;38.40
61167;DHT22;47038;50.808;3.468;2022-07-12T14:15:10;35.30;39.00
61167;DHT22;47038;50.808;3.468;2022-07-12T14:17:46;35.30;40.70
61167;DHT22;47038;50.808;3.468;2022-07-12T14:20:12;35.30;40.70
61167;DHT22;47038;50.808;3.468;2022-07-12T14:22:38;35.30;40.90
61167;DHT22;47038;50.808;3.468;2022-07-12T14:25:05;35.50;40.20
61167;DHT22;47038;50.808;3.468;2022-07-12T14:27:34;35.40;40.60
61167;DHT22;47038;50.808;3.468;2022-07-12T14:30:00;35.20;40.20
61167;DHT22;47038;50.808;3.468;2022-07-12T14:32:25;35.20;40.50
61167;DHT22;47038;50.808;3.468;2022-07-12T14:34:51;35.10;40.90
61167;DHT22;47038;50.808;3.468;2022-07-12T14:37:16;35.10;41.30
61167;DHT22;47038;50.808;3.468;2022-07-12T14:39:42;35.20;41.20
61167;DHT22;47038;50.808;3.468;2022-07-12T14:42:08;35.20;40.90
61167;DHT22;47038;50.808;3.468;2022-07-12T14:44:33;35.20;41.20
61167;DHT22;47038;50.808;3.468;2022-07-12T14:46:59;35.30;40.80
61167;DHT22;47038;50.808;3.468;2022-07-12T14:49:24;35.20;40.90
61167;DHT22;47038;50.808;3.468;2022-07-12T14:51:50;35.30;40.30
61167;DHT22;47038;50.808;3.468;2022-07-12T14:54:15;35.30;41.10
61167;DHT22;47038;50.808;3.468;2022-07-12T14:56:41;35.30;40.80
61167;DHT22;47038;50.808;3.468;2022-07-12T14:59:07;35.40;40.30
61167;DHT22;47038;50.808;3.468;2022-07-12T15:01:32;35.30;40.50
61167;DHT22;47038;50.808;3.468;2022-07-12T15:03:58;35.40;40.70
61167;DHT22;47038;50.808;3.468;2022-07-12T15:06:23;35.30;40.10
61167;DHT22;47038;50.808;3.468;2022-07-12T15:08:52;35.40;40.10
61167;DHT22;47038;50.808;3.468;2022-07-12T15:11:17;35.30;40.00
61167;DHT22;47038;50.808;3.468;2022-07-12T15:13:43;35.20;40.60
61167;DHT22;47038;50.808;3.468;2022-07-12T15:16:08;35.10;41.00
61167;DHT22;47038;50.808;3.468;2022-07-12T15:18:34;35.30;40.10
61167;DHT22;47038;50.808;3.468;2022-07-12T15:21:01;35.60;40.50
61167;DHT22;47038;50.808;3.468;2022-07-12T15:23:26;35.60;39.60
61167;DHT22;47038;50.808;3.468;2022-07-12T15:25:53;35.90;40.90
61167;DHT22;47038;50.808;3.468;2022-07-12T15:28:19;36.20;40.90
61167;DHT22;47038;50.808;3.468;2022-07-12T15:30:45;36.30;40.30
61167;DHT22;47038;50.808;3.468;2022-07-12T15:33:10;36.40;40.50
61167;DHT22;47038;50.808;3.468;2022-07-12T15:35:36;36.30;39.90
61167;DHT22;47038;50.808;3.468;2022-07-12T15:38:02;36.40;40.50